createdAt,value
2023-02-18T00:01:33.879Z,4.10
2023-02-18T00:04:01.681Z,4.10
2023-02-18T00:06:31.983Z,4.10
2023-02-18T00:09:02.558Z,4.10
2023-02-18T00:11:32.884Z,4.00
2023-02-18T00:14:01.961Z,4.00
2023-02-18T00:16:30.449Z,3.90
2023-02-18T00:19:06.645Z,3.90
2023-02-18T00:21:35.818Z,3.80
2023-02-18T00:24:05.293Z,3.80
2023-02-18T00:26:32.912Z,3.80
2023-02-18T00:29:00.107Z,3.80
2023-02-18T00:31:34.964Z,3.80
2023-02-18T00:34:02.950Z,3.80
2023-02-18T00:36:31.008Z,3.80
2023-02-18T00:39:01.003Z,3.80
2023-02-18T00:41:29.736Z,3.70
2023-02-18T00:43:57.237Z,3.70
2023-02-18T00:46:25.714Z,3.70
2023-02-18T00:48:53.296Z,3.70
2023-02-18T00:51:21.170Z,3.60
2023-02-18T00:53:48.536Z,3.60
2023-02-18T00:56:16.185Z,3.60
2023-02-18T00:58:43.856Z,3.50
2023-02-18T01:01:12.342Z,3.50
2023-02-18T01:03:42.060Z,3.50
2023-02-18T01:06:10.392Z,3.30
2023-02-18T01:08:38.842Z,3.30
2023-02-18T01:11:07.539Z,3.20
2023-02-18T01:13:35.070Z,3.20
2023-02-18T01:16:02.560Z,3.00
2023-02-18T01:18:30.180Z,3.10
2023-02-18T01:20:57.951Z,3.00
2023-02-18T01:23:25.187Z,2.90
2023-02-18T01:25:53.153Z,2.80
2023-02-18T01:28:25.382Z,2.80
2023-02-18T01:30:54.261Z,2.60
2023-02-18T01:33:22.567Z,2.50
2023-02-18T01:35:50.119Z,2.40
2023-02-18T01:38:17.302Z,2.40
2023-02-18T01:40:49.560Z,2.30
2023-02-18T01:43:17.578Z,2.10
2023-02-18T01:45:59.018Z,2.10
2023-02-18T01:48:36.426Z,2.00
2023-02-18T01:51:37.845Z,2.10
2023-02-18T01:54:15.406Z,1.90
2023-02-18T01:57:05.755Z,1.90
2023-02-18T01:59:48.884Z,1.90
2023-02-18T02:02:19.871Z,1.80
2023-02-18T02:04:47.926Z,1.70
2023-02-18T02:07:16.889Z,1.70
2023-02-18T02:09:45.257Z,1.50
2023-02-18T02:12:40.008Z,1.60
2023-02-18T02:15:19.575Z,1.60
2023-02-18T02:18:12.138Z,1.60
2023-02-18T02:20:58.098Z,1.50
2023-02-18T02:23:44.255Z,1.60
2023-02-18T02:26:20.391Z,1.50
2023-02-18T02:29:07.585Z,1.50
2023-02-18T02:31:46.978Z,1.50
2023-02-18T02:34:28.837Z,1.50
2023-02-18T02:37:25.666Z,1.30
2023-02-18T02:40:07.109Z,1.20
2023-02-18T02:42:59.012Z,1.10
2023-02-18T02:45:55.683Z,1.10
2023-02-18T02:48:52.978Z,1.10
2023-02-18T02:51:32.492Z,1.10
2023-02-18T02:54:16.456Z,1.10
2023-02-18T02:56:44.191Z,1.10
2023-02-18T02:59:20.965Z,1.10
2023-02-18T03:02:05.206Z,0.90
2023-02-18T03:04:55.133Z,0.90
2023-02-18T03:07:41.110Z,0.90
2023-02-18T03:10:29.958Z,0.90
2023-02-18T03:13:41.426Z,0.90
2023-02-18T03:16:28.596Z,0.90
2023-02-18T03:19:16.434Z,0.90
2023-02-18T03:21:56.646Z,0.80
2023-02-18T03:24:34.983Z,0.80
2023-02-18T03:27:14.564Z,0.80
2023-02-18T03:29:45.579Z,0.80
2023-02-18T03:32:16.239Z,0.80
2023-02-18T03:34:47.960Z,0.80
2023-02-18T03:37:16.241Z,0.70
2023-02-18T03:39:49.303Z,0.70
2023-02-18T03:42:18.957Z,0.80
2023-02-18T03:44:46.493Z,0.70
2023-02-18T03:47:13.948Z,0.70
2023-02-18T03:49:41.481Z,0.70
2023-02-18T03:52:08.673Z,0.70
2023-02-18T03:54:36.080Z,0.60
2023-02-18T03:57:04.238Z,0.70
2023-02-18T03:59:31.431Z,0.70
2023-02-18T04:01:58.603Z,0.80
2023-02-18T04:04:25.735Z,0.80
2023-02-18T04:06:53.042Z,0.60
2023-02-18T04:09:20.179Z,0.70
2023-02-18T04:11:47.679Z,0.70
2023-02-18T04:14:15.667Z,0.70
2023-02-18T04:16:43.194Z,0.70
2023-02-18T04:19:10.894Z,0.70
2023-02-18T04:21:39.381Z,0.70
2023-02-18T04:24:06.955Z,0.80
2023-02-18T04:26:34.262Z,0.80
2023-02-18T04:29:02.016Z,0.80
2023-02-18T04:31:29.681Z,0.70
2023-02-18T04:33:57.506Z,0.70
2023-02-18T04:36:24.629Z,0.70
2023-02-18T04:38:51.895Z,0.70
2023-02-18T04:41:19.579Z,0.70
2023-02-18T04:43:47.118Z,0.70
2023-02-18T04:46:14.462Z,0.70
2023-02-18T04:48:41.800Z,0.70
2023-02-18T04:51:09.133Z,0.70
2023-02-18T04:53:36.314Z,0.70
2023-02-18T04:56:03.672Z,0.70
2023-02-18T04:58:31.044Z,0.70
2023-02-18T05:01:03.336Z,0.70
2023-02-18T05:03:31.582Z,0.70
2023-02-18T05:05:59.038Z,0.70
2023-02-18T05:08:26.960Z,0.60
2023-02-18T05:10:54.117Z,0.70
2023-02-18T05:13:23.069Z,0.70
2023-02-18T05:15:50.769Z,0.70
2023-02-18T05:18:18.293Z,0.80
2023-02-18T05:20:45.411Z,0.80
2023-02-18T05:23:12.594Z,0.80
2023-02-18T05:25:39.867Z,0.80
2023-02-18T05:28:07.174Z,0.80
2023-02-18T05:30:34.472Z,0.70
2023-02-18T05:33:01.585Z,0.80
2023-02-18T05:35:28.831Z,0.80
2023-02-18T05:37:56.264Z,0.80
2023-02-18T05:40:23.591Z,0.70
2023-02-18T05:42:51.141Z,0.70
2023-02-18T05:45:18.549Z,0.70
2023-02-18T05:47:45.743Z,0.70
2023-02-18T05:50:13.728Z,0.70
2023-02-18T05:52:41.008Z,0.70
2023-02-18T05:55:08.470Z,0.70
2023-02-18T05:57:36.460Z,0.70
2023-02-18T06:00:05.641Z,0.70
2023-02-18T06:02:32.776Z,0.60
2023-02-18T06:04:59.982Z,0.70
2023-02-18T06:07:27.258Z,0.70
2023-02-18T06:09:54.671Z,0.80
2023-02-18T06:12:21.866Z,0.70
2023-02-18T06:14:49.504Z,0.70
2023-02-18T06:17:18.959Z,0.80
2023-02-18T06:19:46.990Z,0.80
2023-02-18T06:22:14.706Z,0.70
2023-02-18T06:24:42.221Z,0.70
2023-02-18T06:27:09.372Z,0.80
2023-02-18T06:29:37.004Z,0.70
2023-02-18T06:32:04.753Z,0.80
2023-02-18T06:34:31.994Z,0.80
2023-02-18T06:37:01.245Z,0.80
2023-02-18T06:39:29.191Z,0.80
2023-02-18T06:41:56.396Z,0.80
2023-02-18T06:44:23.683Z,0.80
2023-02-18T06:46:51.267Z,0.90
2023-02-18T06:49:18.826Z,0.90
2023-02-18T06:51:46.528Z,0.80
2023-02-18T06:54:13.777Z,0.90
2023-02-18T06:56:40.936Z,0.90
2023-02-18T06:59:08.495Z,0.90
2023-02-18T07:01:35.894Z,0.90
2023-02-18T07:04:03.460Z,0.90
2023-02-18T07:06:31.011Z,0.90
2023-02-18T07:08:58.287Z,0.90
2023-02-18T07:11:25.605Z,0.90
2023-02-18T07:13:52.905Z,0.80
2023-02-18T07:16:20.053Z,0.90
2023-02-18T07:18:47.360Z,0.90
2023-02-18T07:21:14.671Z,0.90
2023-02-18T07:23:42.081Z,0.90
2023-02-18T07:26:11.843Z,1.00
2023-02-18T07:28:39.835Z,1.00
2023-02-18T07:31:07.282Z,1.00
2023-02-18T07:33:35.203Z,1.00
2023-02-18T07:36:03.444Z,1.10
2023-02-18T07:38:31.260Z,1.10
2023-02-18T07:40:59.816Z,1.10
2023-02-18T07:43:27.100Z,1.10
2023-02-18T07:45:54.655Z,1.10
2023-02-18T07:48:22.192Z,1.20
2023-02-18T07:50:49.316Z,1.10
2023-02-18T07:53:17.557Z,1.20
2023-02-18T07:55:50.830Z,1.30
2023-02-18T07:58:38.586Z,1.30
2023-02-18T08:01:08.349Z,1.40
2023-02-18T08:03:36.525Z,1.30
2023-02-18T08:06:06.507Z,1.40
2023-02-18T08:08:36.730Z,1.50
2023-02-18T08:11:18.555Z,1.50
2023-02-18T08:13:48.184Z,1.40
2023-02-18T08:16:17.367Z,1.40
2023-02-18T08:18:44.958Z,1.40
2023-02-18T08:21:12.465Z,1.50
2023-02-18T08:23:40.328Z,1.50
2023-02-18T08:26:08.627Z,1.50
2023-02-18T08:28:36.181Z,1.40
2023-02-18T08:31:04.065Z,1.40
2023-02-18T08:33:32.048Z,1.60
2023-02-18T08:35:59.351Z,1.60
2023-02-18T08:38:26.598Z,1.60
2023-02-18T08:41:03.448Z,1.60
2023-02-18T08:43:31.060Z,1.40
2023-02-18T08:45:59.848Z,1.40
2023-02-18T08:48:28.628Z,1.50
2023-02-18T08:50:55.986Z,1.60
2023-02-18T08:53:23.338Z,1.60
2023-02-18T08:55:50.555Z,1.60
2023-02-18T08:58:17.774Z,1.60
2023-02-18T09:00:45.536Z,1.70
2023-02-18T09:03:14.983Z,1.70
2023-02-18T09:05:42.750Z,1.60
2023-02-18T09:08:10.064Z,1.60
2023-02-18T09:10:37.609Z,1.60
2023-02-18T09:13:05.243Z,1.50
2023-02-18T09:15:32.842Z,1.70
2023-02-18T09:18:00.482Z,1.60
2023-02-18T09:20:28.825Z,1.80
2023-02-18T09:22:56.506Z,1.90
2023-02-18T09:25:24.314Z,1.80
2023-02-18T09:27:51.784Z,1.80
2023-02-18T09:30:19.291Z,1.90
2023-02-18T09:32:46.853Z,2.00
2023-02-18T09:35:14.378Z,1.90
2023-02-18T09:37:41.999Z,1.90
2023-02-18T09:40:21.723Z,1.80
2023-02-18T09:42:49.382Z,1.80
2023-02-18T09:45:17.190Z,1.70
2023-02-18T09:47:46.553Z,1.80
2023-02-18T09:50:23.613Z,1.80
2023-02-18T09:52:51.060Z,1.90
2023-02-18T09:55:21.088Z,2.00
2023-02-18T09:57:59.015Z,2.00
2023-02-18T10:00:38.754Z,1.90
2023-02-18T10:06:52.523Z,2.00
2023-02-18T10:09:24.032Z,1.90
2023-02-18T10:11:57.621Z,2.00
2023-02-18T10:14:27.631Z,2.00
2023-02-18T10:16:55.383Z,2.10
2023-02-18T10:19:34.600Z,2.10
2023-02-18T10:22:04.186Z,2.10
2023-02-18T10:24:43.182Z,2.20
2023-02-18T10:27:14.556Z,2.20
2023-02-18T10:29:42.157Z,2.40
2023-02-18T10:32:23.344Z,2.40
2023-02-18T10:35:21.376Z,2.50
2023-02-18T10:38:05.090Z,2.60
2023-02-18T10:40:38.275Z,2.60
2023-02-18T10:43:23.539Z,2.50
2023-02-18T10:46:16.129Z,2.50
2023-02-18T10:49:26.231Z,2.50
2023-02-18T10:51:58.586Z,2.60
2023-02-18T10:54:47.587Z,2.70
2023-02-18T10:57:20.547Z,2.70
2023-02-18T11:00:00.337Z,2.70
2023-02-18T11:02:32.642Z,2.70
2023-02-18T11:05:06.682Z,2.60
2023-02-18T11:07:36.371Z,2.70
2023-02-18T11:10:32.338Z,2.80
2023-02-18T11:13:06.321Z,2.90
2023-02-18T11:15:34.741Z,2.90
2023-02-18T11:18:26.842Z,3.00
2023-02-18T11:21:00.437Z,3.10
2023-02-18T11:23:27.815Z,3.10
2023-02-18T11:26:07.290Z,3.10
2023-02-18T11:28:58.871Z,3.10
2023-02-18T11:31:31.470Z,3.20
2023-02-18T11:34:01.255Z,3.20
2023-02-18T11:36:30.510Z,3.30
2023-02-18T11:38:59.464Z,3.20
2023-02-18T11:41:34.772Z,3.30
2023-02-18T11:44:03.602Z,3.40
2023-02-18T11:46:31.156Z,3.30
2023-02-18T11:49:20.374Z,3.30
2023-02-18T11:51:49.588Z,3.30
2023-02-18T11:54:31.760Z,3.50
2023-02-18T11:57:14.134Z,3.60
2023-02-18T11:59:42.983Z,3.80
2023-02-18T12:02:10.357Z,3.90
2023-02-18T12:04:46.404Z,3.90
2023-02-18T12:07:27.164Z,3.90
2023-02-18T12:10:05.508Z,3.90
2023-02-18T12:12:43.630Z,4.00
2023-02-18T12:15:19.597Z,3.80
2023-02-18T12:18:09.659Z,3.70
2023-02-18T12:21:04.516Z,3.70
2023-02-18T12:23:51.748Z,3.80
2023-02-18T12:26:56.518Z,3.60
2023-02-18T12:29:41.970Z,3.50
2023-02-18T12:32:39.875Z,3.50
2023-02-18T12:35:27.978Z,3.50
2023-02-18T12:38:19.916Z,3.60
2023-02-18T12:41:17.580Z,3.60
2023-02-18T12:44:12.639Z,3.60
2023-02-18T12:47:03.505Z,3.50
2023-02-18T12:49:56.684Z,3.50
2023-02-18T12:52:51.640Z,3.40
2023-02-18T12:55:22.036Z,3.50
2023-02-18T12:57:52.698Z,3.40
2023-02-18T13:01:19.744Z,3.30
2023-02-18T13:04:00.427Z,3.40
2023-02-18T13:06:49.207Z,3.30
2023-02-18T13:10:00.950Z,3.40
2023-02-18T13:12:44.061Z,3.40
2023-02-18T13:15:14.516Z,3.50
2023-02-18T13:17:43.609Z,3.60
2023-02-18T13:20:26.577Z,3.50
2023-02-18T13:22:54.447Z,3.50
2023-02-18T13:25:22.486Z,3.60
2023-02-18T13:28:15.945Z,3.50
2023-02-18T13:30:46.492Z,3.40
2023-02-18T13:33:18.688Z,3.50
2023-02-18T13:35:55.591Z,3.50
2023-02-18T13:39:01.025Z,3.40
2023-02-18T13:41:28.840Z,3.30
2023-02-18T13:43:56.060Z,3.40
2023-02-18T13:46:28.751Z,3.40
2023-02-18T13:49:07.516Z,3.40
2023-02-18T13:51:41.296Z,3.20
2023-02-18T13:54:17.297Z,3.20
2023-02-18T13:56:58.553Z,3.10
2023-02-18T13:59:48.782Z,3.10
2023-02-18T14:02:25.779Z,3.10
2023-02-18T14:04:55.853Z,3.10
2023-02-18T14:07:41.759Z,2.90
2023-02-18T14:10:21.049Z,3.00
2023-02-18T14:12:58.030Z,2.80
2023-02-18T14:15:25.680Z,2.80
2023-02-18T14:17:59.395Z,2.90
2023-02-18T14:20:46.988Z,2.80
2023-02-18T14:23:23.700Z,2.80
2023-02-18T14:26:08.211Z,2.90
2023-02-18T14:28:36.462Z,3.00
2023-02-18T14:31:13.656Z,3.00
2023-02-18T14:33:53.353Z,2.90
2023-02-18T14:36:42.201Z,3.00
2023-02-18T14:39:45.447Z,2.90
2023-02-18T14:42:42.484Z,2.80
2023-02-18T14:45:16.589Z,2.80
2023-02-18T14:47:49.645Z,2.80
2023-02-18T14:50:20.370Z,2.80
2023-02-18T14:53:13.647Z,2.70
2023-02-18T14:55:47.254Z,2.70
2023-02-18T14:58:27.711Z,2.70
2023-02-18T15:00:55.189Z,2.70
2023-02-18T15:03:22.931Z,2.60
2023-02-18T15:05:51.652Z,2.60
2023-02-18T15:08:24.584Z,2.60
2023-02-18T15:11:07.198Z,2.50
2023-02-18T15:13:44.480Z,2.50
2023-02-18T15:16:24.907Z,2.40
2023-02-18T15:18:59.536Z,2.40
2023-02-18T15:21:37.368Z,2.40
2023-02-18T15:24:30.219Z,2.30
2023-02-18T15:27:01.794Z,2.30
2023-02-18T15:29:36.336Z,2.30
2023-02-18T15:32:18.036Z,2.30
2023-02-18T15:34:46.428Z,2.20
2023-02-18T15:37:15.323Z,2.20
2023-02-18T15:39:43.995Z,2.20
2023-02-18T15:42:36.441Z,2.10
2023-02-18T15:45:21.214Z,2.10
2023-02-18T15:47:52.510Z,2.10
2023-02-18T15:50:29.779Z,2.00
2023-02-18T15:53:05.268Z,1.90
2023-02-18T15:55:36.863Z,1.80
2023-02-18T15:58:09.772Z,1.70
2023-02-18T16:00:47.551Z,1.70
2023-02-18T16:03:26.266Z,1.80
2023-02-18T16:06:23.441Z,1.70
2023-02-18T16:09:01.829Z,1.80
2023-02-18T16:11:39.568Z,1.80
2023-02-18T16:14:07.066Z,1.80
2023-02-18T16:16:37.168Z,1.80
2023-02-18T16:19:04.696Z,1.70
2023-02-18T16:21:39.102Z,1.80
2023-02-18T16:24:29.402Z,1.70
2023-02-18T16:27:01.418Z,1.70
2023-02-18T16:29:40.353Z,1.60
2023-02-18T16:32:08.084Z,1.50
2023-02-18T16:34:36.221Z,1.50
2023-02-18T16:37:22.523Z,1.40
2023-02-18T16:39:52.120Z,1.40
2023-02-18T16:42:19.560Z,1.30
2023-02-18T16:44:48.418Z,1.30
2023-02-18T16:47:19.045Z,1.30
2023-02-18T16:49:49.878Z,1.20
2023-02-18T16:52:19.546Z,1.20
2023-02-18T16:54:48.746Z,1.20
2023-02-18T16:57:16.254Z,1.20
2023-02-18T16:59:43.584Z,1.20
2023-02-18T17:02:19.133Z,1.20
2023-02-18T17:04:46.840Z,1.20
2023-02-18T17:07:14.241Z,1.20
2023-02-18T17:09:41.843Z,1.20
2023-02-18T17:12:10.187Z,1.10
2023-02-18T17:14:37.617Z,1.10
2023-02-18T17:17:11.278Z,1.10
2023-02-18T17:19:38.469Z,1.10
2023-02-18T17:22:06.004Z,1.10
2023-02-18T17:24:36.103Z,1.10
2023-02-18T17:27:03.957Z,1.10
2023-02-18T17:29:31.384Z,1.10
2023-02-18T17:31:58.863Z,1.10
2023-02-18T17:34:28.789Z,1.10
2023-02-18T17:36:56.155Z,1.10
2023-02-18T17:39:24.770Z,1.00
2023-02-18T17:41:52.537Z,1.00
2023-02-18T17:44:24.608Z,1.10
2023-02-18T17:46:53.218Z,1.10
2023-02-18T17:49:21.410Z,1.00
2023-02-18T17:51:48.970Z,1.00
2023-02-18T17:54:19.198Z,1.00
2023-02-18T17:56:47.443Z,1.00
2023-02-18T17:59:15.049Z,0.90
2023-02-18T18:01:43.585Z,0.90
2023-02-18T18:04:16.634Z,0.80
2023-02-18T18:06:46.073Z,0.80
2023-02-18T18:09:13.859Z,0.70
2023-02-18T18:11:41.501Z,0.70
2023-02-18T18:14:14.513Z,0.70
2023-02-18T18:16:42.079Z,0.60
2023-02-18T18:19:09.698Z,0.60
2023-02-18T18:21:37.874Z,0.70
2023-02-18T18:24:05.938Z,0.60
2023-02-18T18:26:33.320Z,0.60
2023-02-18T18:29:00.932Z,0.50
2023-02-18T18:31:28.501Z,0.60
2023-02-18T18:33:57.458Z,0.50
2023-02-18T18:36:25.015Z,0.60
2023-02-18T18:38:53.327Z,0.50
2023-02-18T18:41:22.726Z,0.50
2023-02-18T18:43:50.577Z,0.50
2023-02-18T18:46:18.784Z,0.60
2023-02-18T18:48:46.482Z,0.60
2023-02-18T18:51:21.845Z,0.60
2023-02-18T18:53:49.396Z,0.60
2023-02-18T18:56:16.653Z,0.50
2023-02-18T18:58:44.787Z,0.60
2023-02-18T19:01:22.911Z,0.50
2023-02-18T19:03:50.572Z,0.40
2023-02-18T19:06:18.179Z,0.40
2023-02-18T19:08:48.006Z,0.40
2023-02-18T19:11:15.847Z,0.40
2023-02-18T19:13:43.687Z,0.30
2023-02-18T19:16:23.624Z,0.30
2023-02-18T19:18:52.228Z,0.30
2023-02-18T19:21:19.949Z,0.30
2023-02-18T19:23:47.304Z,0.30
2023-02-18T19:26:21.209Z,0.30
2023-02-18T19:28:48.976Z,0.30
2023-02-18T19:31:16.487Z,0.20
2023-02-18T19:33:47.619Z,0.20
2023-02-18T19:36:17.738Z,0.20
2023-02-18T19:38:46.810Z,0.20
2023-02-18T19:41:19.850Z,0.20
2023-02-18T19:43:48.449Z,0.20
2023-02-18T19:46:21.655Z,0.10
2023-02-18T19:48:52.862Z,0.20
2023-02-18T19:51:21.691Z,0.10
2023-02-18T19:53:48.881Z,0.20
2023-02-18T19:56:17.065Z,0.20
2023-02-18T19:59:05.251Z,0.10
2023-02-18T20:01:34.933Z,0.20
2023-02-18T20:04:03.607Z,0.10
2023-02-18T20:06:32.092Z,0.10
2023-02-18T20:09:00.813Z,0.00
2023-02-18T20:11:31.061Z,0.00
2023-02-18T20:13:59.985Z,0.00
2023-02-18T20:16:27.566Z,0.00
2023-02-18T20:18:55.082Z,-0.10
2023-02-18T20:21:23.934Z,-0.20
2023-02-18T20:23:56.226Z,-0.20
2023-02-18T20:26:25.010Z,-0.20
2023-02-18T20:28:52.598Z,-0.20
2023-02-18T20:31:21.305Z,-0.30
2023-02-18T20:33:49.250Z,-0.30
2023-02-18T20:36:16.479Z,-0.30
2023-02-18T20:38:43.623Z,-0.30
2023-02-18T20:41:18.568Z,-0.30
2023-02-18T20:43:50.113Z,-0.30
2023-02-18T20:46:25.679Z,-0.30
2023-02-18T20:48:53.855Z,-0.30
2023-02-18T20:51:22.589Z,-0.40
2023-02-18T20:53:50.848Z,-0.40
2023-02-18T20:56:22.399Z,-0.40
2023-02-18T20:58:50.605Z,-0.40
2023-02-18T21:01:19.292Z,-0.40
2023-02-18T21:03:48.818Z,-0.50
2023-02-18T21:06:19.413Z,-0.50
2023-02-18T21:08:49.754Z,-0.50
2023-02-18T21:11:19.623Z,-0.50
2023-02-18T21:13:48.734Z,-0.50
2023-02-18T21:16:17.782Z,-0.50
2023-02-18T21:18:46.235Z,-0.60
2023-02-18T21:21:14.801Z,-0.60
2023-02-18T21:23:43.033Z,-0.60
2023-02-18T21:26:17.599Z,-0.60
2023-02-18T21:28:55.525Z,-0.70
2023-02-18T21:31:36.560Z,-0.70
2023-02-18T21:34:05.937Z,-0.70
2023-02-18T21:36:33.896Z,-0.70
2023-02-18T21:39:04.159Z,-0.70
2023-02-18T21:41:35.515Z,-0.80
2023-02-18T21:44:05.252Z,-0.80
2023-02-18T21:46:36.057Z,-0.80
2023-02-18T21:49:06.852Z,-0.80
2023-02-18T21:52:08.918Z,-0.80
2023-02-18T21:54:42.199Z,-0.90
2023-02-18T21:57:14.000Z,-0.90
2023-02-18T21:59:42.350Z,-0.90
2023-02-18T22:02:16.639Z,-0.90
2023-02-18T22:04:44.016Z,-1.00
2023-02-18T22:07:11.613Z,-1.00
2023-02-18T22:09:39.093Z,-1.10
2023-02-18T22:12:08.028Z,-1.00
2023-02-18T22:14:36.181Z,-1.10
2023-02-18T22:17:03.749Z,-1.10
2023-02-18T22:19:31.413Z,-1.00
2023-02-18T22:21:58.692Z,-1.10
2023-02-18T22:24:26.126Z,-1.00
2023-02-18T22:26:53.530Z,-1.10
2023-02-18T22:29:21.831Z,-1.10
2023-02-18T22:31:50.166Z,-1.20
2023-02-18T22:34:18.003Z,-1.20
2023-02-18T22:36:46.191Z,-1.20
2023-02-18T22:39:15.495Z,-1.30
2023-02-18T22:41:43.180Z,-1.20
2023-02-18T22:44:14.080Z,-1.30
2023-02-18T22:46:41.969Z,-1.30
2023-02-18T22:49:09.333Z,-1.30
2023-02-18T22:51:39.756Z,-1.30
2023-02-18T22:54:10.867Z,-1.30
2023-02-18T22:56:38.413Z,-1.30
2023-02-18T22:59:06.484Z,-1.30
2023-02-18T23:01:36.916Z,-1.40
2023-02-18T23:04:09.105Z,-1.40
2023-02-18T23:06:37.782Z,-1.40
2023-02-18T23:09:06.437Z,-1.40
2023-02-18T23:11:34.478Z,-1.50
2023-02-18T23:14:20.095Z,-1.50
2023-02-18T23:17:16.441Z,-1.50
2023-02-18T23:19:51.971Z,-1.60
2023-02-18T23:22:28.475Z,-1.60
2023-02-18T23:24:56.318Z,-1.60
2023-02-18T23:27:24.563Z,-1.60
2023-02-18T23:29:52.839Z,-1.70
2023-02-18T23:32:20.790Z,-1.70
2023-02-18T23:34:51.080Z,-1.80
2023-02-18T23:37:38.505Z,-1.80
2023-02-18T23:40:06.868Z,-1.80
2023-02-18T23:42:34.093Z,-1.80
2023-02-18T23:45:01.387Z,-1.80
2023-02-18T23:47:28.456Z,-1.80
2023-02-18T23:49:55.677Z,-1.80
2023-02-18T23:52:23.356Z,-1.80
2023-02-18T23:54:52.885Z,-1.80
2023-02-18T23:57:20.786Z,-1.90
2023-02-18T23:59:47.999Z,-1.90
